Time;durP1;ratioP1;P1;durP2;ratioP2;P2;SDS_P1;SDS_P2;PMS_P1;PMS_P2;Temp;Humidity;BMP_temperature;BMP_pressure;BME280_temperature;BME280_humidity;BME280_pressure;Samples;Min_cycle;Max_cycle;Signal;HPM_P1;HPM_P2
2021/12/30 00:01:53;;;;;;;66.72;12.70;;;;;;;11.82;68.20;100972.75;5188621;28;20505;-44
2021/12/30 00:04:26;;;;;;;59.42;12.57;;;;;;;11.82;68.29;100967.47;5192083;28;20410;-43
2021/12/30 00:06:59;;;;;;;66.07;13.48;;;;;;;11.82;68.07;100964.81;5178502;28;20423;-43
2021/12/30 00:09:31;;;;;;;61.75;13.02;;;;;;;11.79;68.16;100965.97;5181024;28;20419;-44
2021/12/30 00:12:06;;;;;;;70.72;14.20;;;;;;;11.84;68.11;100970.81;5186398;28;20417;-46
2021/12/30 00:14:39;;;;;;;76.28;15.23;;;;;;;11.80;68.14;100980.88;5179272;28;20899;-44
2021/12/30 00:17:12;;;;;;;68.47;13.90;;;;;;;11.88;68.27;100983.59;5177285;28;20488;-44
2021/12/30 00:19:44;;;;;;;73.32;15.40;;;;;;;11.91;68.35;100974.50;5179023;28;20541;-44
2021/12/30 00:22:16;;;;;;;80.35;20.15;;;;;;;11.94;68.33;100961.78;5169941;28;20473;-44
2021/12/30 00:24:49;;;;;;;74.82;15.30;;;;;;;11.98;68.21;100957.88;5173155;28;20429;-48
2021/12/30 00:27:23;;;;;;;70.35;14.65;;;;;;;12.04;68.32;100971.44;5163265;28;20779;-46
2021/12/30 00:29:55;;;;;;;72.73;15.93;;;;;;;12.06;68.26;100965.03;5173456;28;20478;-44
2021/12/30 00:32:27;;;;;;;73.63;14.10;;;;;;;12.08;68.25;100975.44;5193753;28;20415;-44
2021/12/30 00:35:01;;;;;;;70.80;14.23;;;;;;;12.04;68.12;100976.75;5195976;28;20406;-44
2021/12/30 00:37:33;;;;;;;58.58;13.30;;;;;;;12.12;68.38;100979.44;5196674;28;20518;-45
2021/12/30 00:40:07;;;;;;;60.03;13.10;;;;;;;12.14;68.29;100986.25;5192570;28;20473;-43
2021/12/30 00:42:41;;;;;;;68.68;14.77;;;;;;;12.18;68.29;100992.91;5197013;28;20906;-44
2021/12/30 00:45:13;;;;;;;70.22;14.73;;;;;;;12.20;68.27;100987.41;5199247;28;20421;-44
2021/12/30 00:47:46;;;;;;;70.53;14.20;;;;;;;12.23;68.29;100995.91;5196399;28;20909;-46
2021/12/30 00:50:19;;;;;;;67.25;12.48;;;;;;;12.26;68.31;101001.84;5196477;28;20425;-45
2021/12/30 00:52:52;;;;;;;56.97;12.63;;;;;;;12.24;68.37;101004.69;5198707;28;20452;-45
2021/12/30 00:55:24;;;;;;;63.38;12.60;;;;;;;12.33;68.30;101008.22;5194493;28;20413;-45
2021/12/30 00:57:58;;;;;;;76.65;16.40;;;;;;;12.31;68.25;101013.66;5199685;28;20403;-44
2021/12/30 01:00:31;;;;;;;63.42;13.88;;;;;;;12.32;68.39;101017.94;5199535;28;20774;-43
2021/12/30 01:03:04;;;;;;;74.13;13.52;;;;;;;12.33;68.49;101014.34;5193163;28;20429;-48
2021/12/30 01:05:37;;;;;;;65.15;13.50;;;;;;;12.35;68.53;101012.34;5201381;28;20435;-44
2021/12/30 01:08:10;;;;;;;60.23;14.03;;;;;;;12.37;68.50;101023.63;5195133;28;20439;-44
2021/12/30 01:10:44;;;;;;;67.78;14.13;;;;;;;12.38;68.52;101016.50;5194655;28;20422;-44
2021/12/30 01:13:24;;;;;;;72.40;13.20;;;;;;;12.41;68.55;101018.84;5195154;28;20470;-46
2021/12/30 01:15:59;;;;;;;75.93;13.75;;;;;;;12.37;68.42;101005.06;5193400;28;20888;-45
2021/12/30 01:18:38;;;;;;;81.00;15.35;;;;;;;12.48;68.65;101024.31;5198484;28;20418;-48
2021/12/30 01:21:13;;;;;;;72.50;14.70;;;;;;;12.51;68.65;101027.53;5198016;28;20787;-45
2021/12/30 01:23:46;;;;;;;68.63;14.55;;;;;;;12.55;68.57;101028.03;5200707;28;20428;-46
2021/12/30 01:26:18;;;;;;;71.00;15.80;;;;;;;12.46;68.65;101030.63;5193900;28;20421;-44
2021/12/30 01:28:53;;;;;;;74.38;13.63;;;;;;;12.59;68.66;101046.09;5198194;28;20432;-44
2021/12/30 01:31:25;;;;;;;85.60;15.23;;;;;;;12.61;68.75;101027.41;5203812;28;20409;-46
2021/12/30 01:33:58;;;;;;;80.38;15.02;;;;;;;12.64;68.70;101037.69;5200113;28;20416;-45
2021/12/30 01:36:31;;;;;;;79.65;14.77;;;;;;;12.66;68.67;101040.97;5198022;28;20413;-45
2021/12/30 01:39:04;;;;;;;81.85;15.38;;;;;;;12.68;68.65;101044.31;5204452;28;20411;-47
2021/12/30 01:41:36;;;;;;;75.13;15.52;;;;;;;12.75;68.74;101055.94;5202820;28;20826;-46
2021/12/30 01:44:10;;;;;;;72.47;14.75;;;;;;;12.79;68.74;101053.78;5200806;28;20426;-45
2021/12/30 01:46:45;;;;;;;87.05;16.58;;;;;;;12.83;68.76;101041.91;5203352;28;20419;-46
2021/12/30 01:49:18;;;;;;;84.80;17.02;;;;;;;12.84;68.66;101031.13;5202913;28;20407;-44
2021/12/30 01:51:52;;;;;;;90.28;15.80;;;;;;;12.82;68.77;101034.91;5200275;28;20425;-44
2021/12/30 01:54:25;;;;;;;77.20;14.95;;;;;;;12.85;68.71;101022.19;5202434;28;20418;-43
2021/12/30 01:57:02;;;;;;;68.72;14.35;;;;;;;12.95;68.81;101032.66;5198508;28;20405;-44
2021/12/30 01:59:36;;;;;;;77.32;15.40;;;;;;;12.97;68.78;101040.44;5193600;28;20814;-50
2021/12/30 02:02:08;;;;;;;76.22;16.23;;;;;;;13.02;68.80;101059.38;5199317;28;20421;-45
2021/12/30 02:04:41;;;;;;;71.63;13.32;;;;;;;13.06;68.83;101058.03;5204428;28;20935;-43
2021/12/30 02:07:14;;;;;;;62.28;15.00;;;;;;;13.08;68.94;101056.06;5199900;28;20888;-45
2021/12/30 02:09:46;;;;;;;81.95;15.88;;;;;;;13.09;68.82;101053.25;5196854;28;20427;-44
2021/12/30 02:12:19;;;;;;;81.40;15.48;;;;;;;13.11;68.99;101034.53;5204882;28;20430;-44
2021/12/30 02:14:52;;;;;;;74.93;13.38;;;;;;;13.13;68.99;101038.69;5199424;28;20421;-45
2021/12/30 02:17:25;;;;;;;71.15;13.88;;;;;;;13.09;68.87;101018.78;5201994;28;20418;-45
2021/12/30 02:20:01;;;;;;;66.10;13.67;;;;;;;13.20;68.97;101030.09;5203227;28;20836;-45
2021/12/30 02:22:33;;;;;;;64.32;12.98;;;;;;;13.18;69.21;101027.59;5201342;28;20418;-44
2021/12/30 02:25:07;;;;;;;57.28;12.35;;;;;;;13.21;69.06;101045.00;5194196;28;20428;-47
2021/12/30 02:27:39;;;;;;;56.22;12.25;;;;;;;13.21;69.08;101050.31;5197560;28;20420;-44
2021/12/30 02:30:12;;;;;;;66.97;12.90;;;;;;;13.21;68.90;101051.13;5199778;28;20429;-45
2021/12/30 02:32:45;;;;;;;52.08;11.38;;;;;;;13.24;69.09;101061.41;5210753;28;20895;-45
2021/12/30 02:35:19;;;;;;;55.80;11.63;;;;;;;13.17;69.15;101056.94;5197365;28;20877;-44
2021/12/30 02:37:52;;;;;;;54.47;10.25;;;;;;;13.23;69.10;101070.38;5198980;28;20473;-47
2021/12/30 02:40:26;;;;;;;48.27;11.77;;;;;;;13.18;69.17;101058.59;5198898;28;20425;-46
2021/12/30 02:42:58;;;;;;;45.83;10.77;;;;;;;13.26;69.24;101085.19;5199461;28;20486;-46
2021/12/30 02:45:31;;;;;;;46.45;10.90;;;;;;;13.27;69.30;101092.97;5199939;28;20430;-46
2021/12/30 02:48:04;;;;;;;46.22;11.60;;;;;;;13.31;69.28;101099.59;5200745;28;20474;-45
2021/12/30 02:50:38;;;;;;;43.33;9.95;;;;;;;13.33;69.25;101097.63;5196735;28;20890;-45
2021/12/30 02:53:11;;;;;;;37.55;10.25;;;;;;;13.34;69.21;101085.19;5202776;28;20746;-46
2021/12/30 02:55:45;;;;;;;43.70;11.40;;;;;;;13.37;69.16;101092.81;5198848;28;20741;-44
2021/12/30 02:58:18;;;;;;;48.73;11.40;;;;;;;13.36;69.28;101084.03;5201509;28;20903;-45
2021/12/30 03:00:57;;;;;;;40.17;12.52;;;;;;;13.37;69.48;101084.84;5204924;28;20774;-45
2021/12/30 03:03:29;;;;;;;45.00;12.57;;;;;;;13.37;69.22;101085.69;5199146;28;20579;-46
2021/12/30 03:06:06;;;;;;;43.05;13.43;;;;;;;13.30;69.24;101082.03;5202197;28;20409;-45
2021/12/30 03:08:39;;;;;;;35.45;12.18;;;;;;;13.35;69.25;101097.47;5193701;28;20418;-46
2021/12/30 03:11:12;;;;;;;32.90;10.68;;;;;;;13.33;69.52;101096.78;5200532;28;20406;-45
2021/12/30 03:13:44;;;;;;;35.75;11.65;;;;;;;13.29;69.48;101096.28;5205185;28;20902;-45
2021/12/30 03:16:23;;;;;;;33.83;13.02;;;;;;;13.27;69.60;101086.81;5199839;28;20510;-45
2021/12/30 03:18:55;;;;;;;32.40;13.57;;;;;;;13.26;69.52;101083.34;5198991;28;20417;-45
2021/12/30 03:21:29;;;;;;;37.42;13.98;;;;;;;13.29;69.69;101069.75;5200324;28;20409;-48
2021/12/30 03:24:04;;;;;;;36.00;13.18;;;;;;;13.28;69.60;101067.25;5192902;28;20420;-44
2021/12/30 03:26:36;;;;;;;38.10;13.30;;;;;;;13.29;69.59;101059.16;5202841;28;20409;-46
2021/12/30 03:29:09;;;;;;;34.88;12.82;;;;;;;13.29;69.65;101048.53;5203408;28;20421;-44
2021/12/30 03:31:41;;;;;;;35.55;10.15;;;;;;;13.19;69.63;101046.97;5201985;28;20417;-45
2021/12/30 03:34:14;;;;;;;27.50;10.32;;;;;;;13.27;69.67;101060.31;5199360;28;20415;-45
2021/12/30 03:36:47;;;;;;;32.08;12.77;;;;;;;13.27;69.70;101053.16;5202134;28;20425;-45
2021/12/30 03:39:20;;;;;;;31.77;13.32;;;;;;;13.29;69.70;101063.63;5204514;28;20413;-46
2021/12/30 03:41:52;;;;;;;46.03;15.88;;;;;;;13.28;69.68;101065.44;5202895;28;20440;-45
2021/12/30 03:44:24;;;;;;;45.38;15.80;;;;;;;13.26;69.77;101064.78;5197737;28;20461;-45
2021/12/30 03:46:57;;;;;;;40.20;14.32;;;;;;;13.24;69.74;101069.38;5197796;28;20490;-45
2021/12/30 03:49:30;;;;;;;45.63;17.35;;;;;;;13.22;69.69;101078.47;5197565;28;20773;-46
2021/12/30 03:52:04;;;;;;;51.15;16.60;;;;;;;13.23;69.67;101090.78;5196755;28;20504;-47
2021/12/30 03:54:37;;;;;;;46.75;15.98;;;;;;;13.20;69.87;101094.56;5194478;28;20467;-45
2021/12/30 03:57:09;;;;;;;49.00;15.43;;;;;;;13.20;69.76;101086.63;5198741;28;20777;-46
2021/12/30 03:59:42;;;;;;;56.15;17.90;;;;;;;13.18;69.75;101093.06;5205358;28;20428;-44
2021/12/30 04:02:14;;;;;;;51.30;17.98;;;;;;;13.19;69.82;101092.88;5197685;28;20433;-44
2021/12/30 04:04:46;;;;;;;52.70;17.85;;;;;;;13.22;69.65;101099.69;5202764;28;20516;-43
2021/12/30 04:07:20;;;;;;;48.22;17.17;;;;;;;13.23;69.73;101091.59;5199829;28;20433;-44
2021/12/30 04:09:53;;;;;;;49.40;16.60;;;;;;;13.25;69.66;101084.31;5196345;28;20448;-44
2021/12/30 04:12:25;;;;;;;44.80;16.50;;;;;;;13.25;69.74;101084.31;5201392;28;20900;-44
2021/12/30 04:14:57;;;;;;;39.57;14.73;;;;;;;13.28;69.62;101081.34;5195290;28;20415;-44
2021/12/30 04:17:30;;;;;;;39.20;13.30;;;;;;;13.30;69.66;101084.69;5197131;28;20425;-45
2021/12/30 04:20:04;;;;;;;34.05;12.80;;;;;;;13.33;69.69;101080.88;5200847;28;20391;-46
2021/12/30 04:22:39;;;;;;;35.00;12.77;;;;;;;13.36;69.75;101078.72;5196929;28;20789;-44
2021/12/30 04:25:15;;;;;;;40.50;13.63;;;;;;;13.37;69.40;101077.72;5196000;28;20418;-44
2021/12/30 04:27:47;;;;;;;37.95;13.15;;;;;;;13.37;69.82;101072.41;5196134;28;20461;-45
2021/12/30 04:30:20;;;;;;;36.03;12.52;;;;;;;13.41;69.77;101061.47;5196228;28;20516;-44
2021/12/30 04:32:52;;;;;;;37.22;12.48;;;;;;;13.45;69.63;101068.16;5202658;28;20428;-44
2021/12/30 04:35:25;;;;;;;45.05;12.32;;;;;;;13.44;69.72;101077.06;5199306;28;20412;-44
2021/12/30 04:37:59;;;;;;;42.42;13.00;;;;;;;13.41;69.74;101072.09;5196015;28;20418;-46
2021/12/30 04:40:31;;;;;;;36.25;11.55;;;;;;;13.38;69.97;101079.41;5193825;28;20528;-46
2021/12/30 04:43:04;;;;;;;33.40;10.55;;;;;;;13.39;69.88;101080.22;5194358;28;20411;-45
2021/12/30 04:45:36;;;;;;;41.88;10.77;;;;;;;13.42;70.03;101068.47;5196385;28;20544;-46
2021/12/30 04:48:08;;;;;;;34.15;9.80;;;;;;;13.40;70.05;101067.78;5207313;28;20898;-46
2021/12/30 04:50:41;;;;;;;38.65;9.43;;;;;;;13.36;69.76;101065.47;5197587;28;20450;-46
2021/12/30 04:53:16;;;;;;;30.77;8.88;;;;;;;13.44;69.97;101082.38;5193323;28;20439;-47
2021/12/30 04:55:50;;;;;;;33.63;9.47;;;;;;;13.46;70.04;101069.78;5203153;28;20827;-45
2021/12/30 04:58:22;;;;;;;37.38;9.68;;;;;;;13.46;70.03;101060.00;5198247;28;20536;-44
2021/12/30 05:00:55;;;;;;;34.92;9.93;;;;;;;13.49;69.94;101058.84;5206660;28;20435;-45
2021/12/30 05:03:28;;;;;;;39.55;9.50;;;;;;;13.51;69.93;101056.88;5202235;28;20400;-46
2021/12/30 05:06:00;;;;;;;35.77;9.43;;;;;;;13.52;70.18;101069.97;5208000;28;20414;-44
2021/12/30 05:08:34;;;;;;;36.50;9.05;;;;;;;13.54;69.93;101072.47;5197471;28;20403;-44
2021/12/30 05:11:07;;;;;;;35.65;9.13;;;;;;;13.56;70.06;101070.47;5196662;28;20407;-44
2021/12/30 05:13:39;;;;;;;29.67;8.55;;;;;;;13.56;70.01;101067.81;5194568;28;20398;-44
2021/12/30 05:16:11;;;;;;;43.17;8.20;;;;;;;13.56;70.10;101066.00;5199478;28;20420;-44
2021/12/30 05:18:43;;;;;;;33.10;9.55;;;;;;;13.59;70.14;101075.44;5197343;28;20423;-46
2021/12/30 05:21:16;;;;;;;32.45;8.30;;;;;;;13.60;70.02;101071.81;5193293;28;20398;-45
2021/12/30 05:23:50;;;;;;;28.13;7.40;;;;;;;13.52;70.09;101045.25;5203483;28;20430;-46
2021/12/30 05:26:27;;;;;;;29.90;7.47;;;;;;;13.59;70.13;101060.38;5200024;28;20505;-45
2021/12/30 05:29:03;;;;;;;40.10;7.78;;;;;;;13.61;70.10;101062.84;5199509;28;20911;-46
2021/12/30 05:31:35;;;;;;;34.78;6.88;;;;;;;13.49;70.39;101051.72;5197046;28;20509;-43
2021/12/30 05:34:08;;;;;;;28.48;6.38;;;;;;;13.63;70.12;101062.69;5202718;28;20433;-45
2021/12/30 05:36:40;;;;;;;39.95;7.38;;;;;;;13.64;70.11;101067.84;5198537;28;20441;-46
2021/12/30 05:39:13;;;;;;;26.95;6.85;;;;;;;13.62;70.17;101064.50;5198669;28;20427;-44
2021/12/30 05:41:46;;;;;;;27.95;7.28;;;;;;;13.60;70.13;101066.50;5195282;28;20522;-45
2021/12/30 05:44:18;;;;;;;31.67;6.23;;;;;;;13.58;70.51;101061.34;5202000;28;20853;-44
2021/12/30 05:46:50;;;;;;;27.20;6.03;;;;;;;13.30;70.25;101018.38;5200872;28;20423;-44
2021/12/30 05:49:23;;;;;;;33.33;6.40;;;;;;;13.50;70.35;101050.75;5195784;28;20448;-45
2021/12/30 05:51:55;;;;;;;32.10;6.82;;;;;;;13.57;70.43;101061.53;5201297;28;20418;-46
2021/12/30 05:54:29;;;;;;;30.83;7.03;;;;;;;13.59;70.30;101057.72;5197808;28;20977;-45
2021/12/30 05:57:01;;;;;;;30.77;6.93;;;;;;;13.58;70.33;101060.53;5202085;28;20872;-49
2021/12/30 05:59:33;;;;;;;31.50;6.95;;;;;;;13.59;70.27;101070.13;5198204;28;20417;-43
2021/12/30 06:02:06;;;;;;;29.30;6.93;;;;;;;13.58;70.38;101074.63;5194204;28;20398;-47
2021/12/30 06:04:41;;;;;;;28.00;5.88;;;;;;;13.60;70.34;101071.81;5209099;28;20755;-44
2021/12/30 06:07:14;;;;;;;28.35;6.78;;;;;;;13.60;70.29;101083.25;5197019;28;20498;-44
2021/12/30 06:09:48;;;;;;;24.25;6.95;;;;;;;13.60;70.42;101075.28;5198535;28;20483;-45
2021/12/30 06:12:20;;;;;;;27.95;7.00;;;;;;;13.61;70.49;101079.59;5207997;28;20413;-45
2021/12/30 06:14:53;;;;;;;26.13;6.22;;;;;;;13.64;70.34;101083.75;5198742;28;20432;-45
2021/12/30 06:17:25;;;;;;;31.00;7.40;;;;;;;13.66;70.40;101087.09;5198447;28;20453;-45
2021/12/30 06:19:57;;;;;;;29.02;6.88;;;;;;;13.67;70.42;101088.75;5204014;28;20745;-44
2021/12/30 06:22:30;;;;;;;25.77;6.07;;;;;;;13.72;70.38;101081.13;5205958;28;20955;-46
2021/12/30 06:25:04;;;;;;;22.33;5.75;;;;;;;13.76;70.46;101093.06;5212385;28;20421;-45
2021/12/30 06:27:37;;;;;;;30.40;7.18;;;;;;;13.75;70.27;101080.78;5203969;28;20955;-45
2021/12/30 06:30:11;;;;;;;22.52;5.80;;;;;;;13.81;70.48;101084.59;5201142;28;20421;-46
2021/12/30 06:32:43;;;;;;;21.55;5.63;;;;;;;13.77;70.33;101083.28;5203259;28;20776;-44
2021/12/30 06:35:16;;;;;;;24.50;5.75;;;;;;;13.84;70.35;101090.44;5203747;28;20405;-44
2021/12/30 06:37:48;;;;;;;19.58;5.22;;;;;;;13.88;70.29;101106.03;5200261;28;20422;-45
2021/12/30 06:40:22;;;;;;;19.23;4.80;;;;;;;13.91;70.34;101111.00;5202739;28;20897;-43
2021/12/30 06:42:54;;;;;;;20.50;5.80;;;;;;;13.90;70.41;101106.66;5207863;28;21371;-45
2021/12/30 06:45:27;;;;;;;21.75;5.53;;;;;;;13.93;70.42;101114.31;5201232;28;20421;-47
2021/12/30 06:48:00;;;;;;;25.13;5.15;;;;;;;13.97;70.41;101113.00;5198686;28;20422;-44
2021/12/30 06:50:33;;;;;;;27.67;5.72;;;;;;;13.99;70.23;101114.47;5202133;28;21143;-43
2021/12/30 06:53:05;;;;;;;15.38;4.57;;;;;;;14.00;70.37;101104.72;5195209;28;20415;-47
2021/12/30 06:55:42;;;;;;;22.48;4.85;;;;;;;14.05;70.26;101102.38;5202492;28;20470;-43
2021/12/30 06:58:14;;;;;;;21.75;4.50;;;;;;;14.08;70.14;101107.34;5200067;28;20430;-42
2021/12/30 07:00:49;;;;;;;22.27;4.82;;;;;;;13.94;70.13;101079.66;5210388;28;20421;-44
2021/12/30 07:03:21;;;;;;;15.57;4.10;;;;;;;14.14;70.25;101117.31;5206575;28;20437;-44
2021/12/30 07:05:54;;;;;;;21.80;4.90;;;;;;;14.15;70.17;101110.16;5220527;28;20432;-46
2021/12/30 07:08:27;;;;;;;20.00;4.57;;;;;;;14.18;70.17;101123.94;5207407;28;20493;-44
2021/12/30 07:11:01;;;;;;;18.00;4.27;;;;;;;14.19;70.22;101122.13;5211726;28;20405;-44
2021/12/30 07:13:33;;;;;;;14.30;4.05;;;;;;;14.18;70.04;101121.28;5211297;28;20415;-45
2021/12/30 07:16:06;;;;;;;16.13;4.10;;;;;;;14.17;70.17;101118.81;5204381;28;20420;-43
2021/12/30 07:18:39;;;;;;;16.40;4.45;;;;;;;14.18;70.11;101126.59;5207735;28;20891;-45
2021/12/30 07:21:11;;;;;;;13.02;3.85;;;;;;;14.20;70.22;101121.97;5211943;28;20956;-43
2021/12/30 07:23:43;;;;;;;11.77;4.00;;;;;;;14.24;69.92;101112.66;5204739;28;20896;-48
2021/12/30 07:26:17;;;;;;;13.75;3.85;;;;;;;14.24;70.15;101120.63;5216375;28;20952;-44
2021/12/30 07:28:49;;;;;;;16.67;3.83;;;;;;;14.25;70.01;101119.63;5193671;28;20505;-45
2021/12/30 07:31:21;;;;;;;16.40;3.58;;;;;;;14.25;69.93;101124.94;5203195;28;20929;-45
2021/12/30 07:33:54;;;;;;;11.80;3.63;;;;;;;14.20;70.04;101124.63;5197906;28;20424;-45
2021/12/30 07:36:26;;;;;;;12.95;3.53;;;;;;;14.23;70.11;101142.88;5212673;28;20462;-48
2021/12/30 07:38:58;;;;;;;14.55;4.10;;;;;;;14.20;70.15;101137.06;5204038;28;20413;-45
2021/12/30 07:41:33;;;;;;;14.10;3.67;;;;;;;14.25;70.17;101130.25;5201164;28;20431;-47
2021/12/30 07:44:06;;;;;;;16.58;3.83;;;;;;;14.26;70.10;101137.22;5199514;28;20943;-51
2021/12/30 07:46:38;;;;;;;15.90;4.30;;;;;;;14.25;69.99;101145.38;5208192;28;20413;-43
2021/12/30 07:49:10;;;;;;;17.13;4.28;;;;;;;14.24;70.07;101151.66;5220897;28;20914;-45
2021/12/30 07:51:43;;;;;;;13.65;4.65;;;;;;;14.23;70.04;101142.88;5204651;28;20523;-46
2021/12/30 07:54:15;;;;;;;19.97;4.17;;;;;;;14.20;70.03;101148.53;5195150;28;20413;-45
2021/12/30 07:56:49;;;;;;;17.17;3.97;;;;;;;14.15;70.06;101145.53;5195218;28;20431;-44
2021/12/30 07:59:21;;;;;;;16.90;5.18;;;;;;;14.06;70.26;101141.22;5200150;28;20519;-44
2021/12/30 08:01:53;;;;;;;20.73;5.53;;;;;;;14.07;70.01;101149.00;5207618;28;20544;-45
2021/12/30 08:04:26;;;;;;;22.73;6.15;;;;;;;14.04;69.95;101154.66;5200801;28;20415;-46
2021/12/30 08:06:58;;;;;;;28.27;5.65;;;;;;;14.02;70.08;101163.78;5197843;28;20410;-46
2021/12/30 08:09:30;;;;;;;25.08;6.38;;;;;;;13.98;69.99;101157.97;5197124;28;20929;-46
2021/12/30 08:12:05;;;;;;;25.00;6.47;;;;;;;13.92;70.02;101157.81;5196365;28;20927;-48
2021/12/30 08:14:38;;;;;;;30.17;7.50;;;;;;;13.88;70.06;101161.78;5194604;28;20498;-45
2021/12/30 08:17:10;;;;;;;26.05;6.72;;;;;;;13.89;69.95;101182.03;5191691;28;20417;-47
2021/12/30 08:19:43;;;;;;;23.55;6.55;;;;;;;13.86;70.02;101177.03;5192972;28;20801;-45
2021/12/30 08:22:16;;;;;;;30.10;7.70;;;;;;;13.77;69.86;101142.50;5200486;28;20977;-45
2021/12/30 08:24:48;;;;;;;28.65;7.18;;;;;;;13.75;70.00;101139.19;5198256;28;20455;-48
2021/12/30 08:27:22;;;;;;;28.55;7.35;;;;;;;13.77;70.01;101162.91;5198705;28;20429;-47
2021/12/30 08:29:54;;;;;;;30.42;7.38;;;;;;;13.73;69.95;101166.88;5199051;28;20710;-46
2021/12/30 08:32:27;;;;;;;30.00;7.70;;;;;;;13.64;70.11;101163.38;5186155;28;20562;-44
2021/12/30 08:35:00;;;;;;;27.85;7.65;;;;;;;13.69;70.07;101182.31;5172095;28;20558;-44
2021/12/30 08:37:33;;;;;;;24.95;7.68;;;;;;;13.69;70.01;101182.31;5174000;28;20419;-44
2021/12/30 08:40:10;;;;;;;37.17;8.15;;;;;;;13.74;69.98;101195.91;5172596;28;20405;-49
2021/12/30 08:42:45;;;;;;;33.42;7.93;;;;;;;13.75;69.88;101202.91;5180455;28;20770;-45
2021/12/30 08:45:18;;;;;;;36.53;8.57;;;;;;;13.76;69.90;101209.03;5161973;28;20416;-44
2021/12/30 08:47:51;;;;;;;34.28;8.25;;;;;;;13.75;70.07;101210.88;5176893;28;20414;-45
2021/12/30 08:50:23;;;;;;;42.15;9.50;;;;;;;13.47;69.79;101164.31;5193797;28;20787;-47
2021/12/30 08:52:56;;;;;;;42.97;9.98;;;;;;;13.76;69.85;101225.78;5178415;28;20514;-45
2021/12/30 08:55:28;;;;;;;41.65;10.48;;;;;;;13.75;69.87;101229.44;5170585;28;20436;-45
2021/12/30 08:58:03;;;;;;;40.17;9.10;;;;;;;13.75;69.83;101229.44;5178399;28;20411;-47
2021/12/30 09:00:41;;;;;;;46.55;10.82;;;;;;;13.76;69.79;101231.09;5166503;28;20915;-52
2021/12/30 09:03:14;;;;;;;54.22;10.65;;;;;;;13.78;69.75;101236.22;5177319;28;20458;-45
2021/12/30 09:05:47;;;;;;;52.63;11.43;;;;;;;13.80;69.80;101243.06;5184131;28;20514;-45
2021/12/30 09:08:19;;;;;;;45.20;11.03;;;;;;;13.70;69.72;101237.06;5183026;28;20425;-45
2021/12/30 09:10:51;;;;;;;47.23;11.20;;;;;;;13.82;69.78;101250.88;5182207;28;20514;-46
2021/12/30 09:13:26;;;;;;;45.07;9.77;;;;;;;13.79;69.69;101254.66;5187655;28;21007;-45
2021/12/30 09:15:58;;;;;;;49.50;11.43;;;;;;;13.77;69.81;101259.31;5185010;28;20438;-46
2021/12/30 09:18:31;;;;;;;49.25;11.32;;;;;;;13.72;69.80;101251.00;5181296;28;20415;-44
2021/12/30 09:21:03;;;;;;;63.15;12.57;;;;;;;13.74;69.79;101249.00;5182142;28;20417;-44
2021/12/30 09:23:36;;;;;;;57.22;12.15;;;;;;;13.73;69.90;101250.00;5177025;28;20411;-48
2021/12/30 09:26:08;;;;;;;52.03;11.23;;;;;;;13.71;69.90;101257.28;5183413;28;20415;-44
2021/12/30 09:28:42;;;;;;;52.97;12.27;;;;;;;13.73;69.86;101254.50;5184860;28;20423;-46
2021/12/30 09:31:15;;;;;;;59.53;12.20;;;;;;;13.72;69.85;101256.31;5182250;28;20433;-45
2021/12/30 09:33:47;;;;;;;54.30;11.70;;;;;;;13.73;69.84;101263.28;5199615;28;20789;-46
2021/12/30 09:36:19;;;;;;;62.72;12.15;;;;;;;13.73;69.71;101252.66;5203452;28;20428;-45
2021/12/30 09:38:52;;;;;;;54.15;12.77;;;;;;;13.77;69.75;101261.94;5204623;28;20413;-44
2021/12/30 09:41:24;;;;;;;58.28;11.35;;;;;;;13.77;69.75;101254.00;5203159;28;20875;-46
2021/12/30 09:43:58;;;;;;;59.85;10.85;;;;;;;13.76;69.88;101260.31;5208189;28;20413;-48
2021/12/30 09:46:30;;;;;;;55.70;12.35;;;;;;;13.77;69.87;101275.22;5200112;28;20417;-46
2021/12/30 09:49:06;;;;;;;58.42;12.38;;;;;;;13.80;69.82;101277.56;5203766;28;20410;-45
2021/12/30 09:51:40;;;;;;;62.90;11.43;;;;;;;13.82;69.82;101283.56;5203516;28;20402;-44
2021/12/30 09:54:13;;;;;;;54.25;11.45;;;;;;;13.88;69.74;101286.56;5204536;28;20893;-45
2021/12/30 09:56:46;;;;;;;41.28;9.57;;;;;;;13.91;69.64;101302.19;5204109;28;20440;-45
2021/12/30 09:59:23;;;;;;;45.78;10.63;;;;;;;13.95;69.65;101298.22;5206426;28;20413;-44
2021/12/30 10:01:56;;;;;;;50.63;9.88;;;;;;;14.00;69.58;101296.75;5206042;28;20456;-46
2021/12/30 10:04:32;;;;;;;54.38;9.35;;;;;;;14.04;69.58;101297.25;5207554;28;20421;-45
2021/12/30 10:07:21;;;;;;;53.75;10.95;;;;;;;14.04;69.51;101302.56;5208964;28;20421;-45
2021/12/30 10:09:59;;;;;;;51.33;11.05;;;;;;;14.05;69.55;101288.28;5204344;28;21280;-44
2021/12/30 10:12:39;;;;;;;52.72;10.52;;;;;;;14.11;69.63;101303.56;5204960;28;20417;-45
2021/12/30 10:15:13;;;;;;;45.80;8.77;;;;;;;14.10;69.59;101312.53;5205252;28;20423;-44
2021/12/30 10:17:55;;;;;;;51.67;11.13;;;;;;;14.13;69.50;101309.56;5207287;28;20500;-45
2021/12/30 10:20:30;;;;;;;50.37;10.47;;;;;;;14.16;69.46;101305.75;5203899;28;20410;-45
2021/12/30 10:23:11;;;;;;;48.93;10.30;;;;;;;14.18;69.46;101312.53;5207814;28;20412;-44
2021/12/30 10:25:47;;;;;;;43.30;9.95;;;;;;;14.23;69.52;101312.91;5201274;28;20421;-48
2021/12/30 10:28:28;;;;;;;45.38;9.98;;;;;;;14.29;69.39;101312.25;5206387;28;20460;-45
2021/12/30 10:31:15;;;;;;;49.28;9.52;;;;;;;14.26;69.14;101295.81;5208585;28;20425;-47
2021/12/30 10:33:55;;;;;;;44.17;8.68;;;;;;;14.38;69.28;101322.91;5194599;28;20847;-46
2021/12/30 10:36:30;;;;;;;41.40;9.70;;;;;;;14.37;69.29;101334.50;5203719;28;20498;-45
2021/12/30 10:39:19;;;;;;;48.45;8.23;;;;;;;14.35;69.29;101318.75;5209256;28;20853;-45
2021/12/30 10:41:54;;;;;;;41.13;8.77;;;;;;;14.36;69.26;101328.38;5204604;28;20770;-44
2021/12/30 10:44:51;;;;;;;46.90;9.27;;;;;;;14.40;69.17;101334.19;5205424;28;20425;-45
2021/12/30 10:47:28;;;;;;;32.63;8.32;;;;;;;14.37;69.11;101324.75;5205051;28;20421;-45
2021/12/30 10:50:06;;;;;;;41.08;9.32;;;;;;;14.34;69.20;101337.50;5209168;28;20416;-44
2021/12/30 10:52:52;;;;;;;45.72;8.80;;;;;;;14.32;69.13;101331.53;5202931;28;20753;-47
2021/12/30 10:55:25;;;;;;;44.90;10.25;;;;;;;14.37;69.09;101334.50;5206308;28;20522;-45
2021/12/30 10:57:59;;;;;;;37.78;9.05;;;;;;;14.36;69.07;101348.78;5206925;28;20440;-43
2021/12/30 11:00:35;;;;;;;47.97;9.70;;;;;;;14.35;69.12;101349.81;5196259;28;20784;-45
2021/12/30 11:03:24;;;;;;;54.08;11.43;;;;;;;14.35;68.97;101355.13;5200130;28;20417;-44
2021/12/30 11:06:13;;;;;;;51.10;9.43;;;;;;;14.34;68.95;101356.09;5207066;28;20479;-46
2021/12/30 11:08:47;;;;;;;41.72;9.60;;;;;;;14.35;69.01;101357.78;5208565;28;20511;-45
2021/12/30 11:11:24;;;;;;;45.83;9.93;;;;;;;14.30;68.92;101343.13;5207157;28;20459;-44
2021/12/30 11:14:02;;;;;;;42.97;9.27;;;;;;;14.29;68.99;101364.56;5210214;28;20427;-44
2021/12/30 11:16:51;;;;;;;48.38;10.23;;;;;;;13.98;68.73;101308.50;5209546;28;21258;-45
2021/12/30 11:19:26;;;;;;;49.80;10.60;;;;;;;14.26;68.79;101348.94;5204148;28;20425;-47
2021/12/30 11:22:00;;;;;;;42.22;9.55;;;;;;;14.26;68.73;101348.94;5206382;28;20413;-48
2021/12/30 11:24:34;;;;;;;46.00;8.68;;;;;;;14.24;68.91;101356.22;5204529;28;20442;-44
2021/12/30 11:27:10;;;;;;;48.10;10.02;;;;;;;14.23;68.87;101359.88;5199676;28;20422;-48
2021/12/30 11:29:46;;;;;;;48.40;10.35;;;;;;;14.21;68.86;101352.06;5208824;28;20439;-43
2021/12/30 11:32:21;;;;;;;41.88;9.00;;;;;;;14.21;68.80;101362.69;5205845;28;20504;-46
2021/12/30 11:34:57;;;;;;;45.03;10.00;;;;;;;14.18;68.85;101341.75;5206847;28;20494;-44
2021/12/30 11:37:29;;;;;;;51.58;10.55;;;;;;;14.22;68.72;101353.75;5207355;28;20423;-45
2021/12/30 11:40:08;;;;;;;47.33;10.40;;;;;;;14.23;68.72;101349.25;5206705;28;20403;-46
2021/12/30 11:42:44;;;;;;;40.03;10.05;;;;;;;14.21;68.81;101359.22;5198593;28;20788;-44